Flight Track Log - Related Links

Times and Time Zones

All times are in EDT time to prevent confusion due to time zone crossing. See the UPS51 flight status page for this flight to view local times or setup timezone preferences in your user account.

Time Position Orientation Groundspeed Altitude Reporting Facility
EDT Latitude Longitude Course Direction KTS MPH feet Rate Location/Type
Fri 01:15:57 PM 47.4167 161.0500 55° Northeast 519 597 31,000  Level Anchorage Center
Fri 01:17:50 PM 47.5500 161.3333 53° Northeast 522 601 31,000  Level Anchorage Center
Fri 01:18:34 PM 47.6333 161.5000 55° Northeast 522 601 31,000  Level Anchorage Center
Fri 01:29:49 PM 48.5333 163.4500 56° Northeast 514 592 31,000  Level Anchorage Center
Fri 01:43:49 PM 49.6000 165.9833 56° Northeast 522 601 31,000  Level Anchorage Center
Fri 01:45:08 PM 49.7000 166.2167 58° Northeast 520 598 31,000  Level Anchorage Center
Fri 01:57:50 PM 50.6500 168.7000 60° Northeast 526 605 31,000  Level Anchorage Center
Fri 02:02:00 PM 50.9833 169.6167 61° Northeast 520 598 31,000  Level Anchorage Center
Fri 02:07:01 PM 51.3167 170.5833 64° Northeast 510 587 31,000  Level Anchorage Center
Fri 02:08:01 PM 51.3833 170.8000 64° Northeast 510 587 31,000  Level Anchorage Center
Fri 02:09:01 PM 51.4333 170.9667 56° Northeast 500 575 31,000  Level Anchorage Center
Fri 02:10:01 PM 51.5167 171.1667 56° Northeast 500 575 31,000  Level Anchorage Center
Fri 02:11:01 PM 51.6000 171.3667 54° Northeast 490 564 31,000  Level Anchorage Center
Fri 02:12:01 PM 51.6667 171.5167 56° Northeast 500 575 31,000  Level Anchorage Center
Fri 02:13:01 PM 51.7500 171.7167 57° Northeast 500 575 31,000  Level Anchorage Center
Fri 02:14:01 PM 51.8167 171.8833 56° Northeast 500 575 31,000  Level Anchorage Center
Fri 02:15:01 PM 51.9000 172.0833 51° Northeast 500 575 31,000  Level Anchorage Center
Fri 02:16:01 PM 51.9833 172.2500 56° Northeast 500 575 31,000  Level Anchorage Center
Fri 02:17:01 PM 52.0667 172.4500 56° Northeast 510 587 31,000  Level Anchorage Center
Fri 02:18:01 PM 52.1500 172.6500 57° Northeast 500 575 31,000  Level Anchorage Center
Fri 02:19:02 PM 52.2167 172.8167 56° Northeast 500 575 31,000  Level Anchorage Center
Fri 02:20:01 PM 52.3000 173.0167 57° Northeast 490 564 31,000  Level Anchorage Center
Fri 02:21:01 PM 52.3667 173.1833 56° Northeast 500 575 31,000  Level Anchorage Center
Fri 02:22:02 PM 52.4500 173.3833 57° Northeast 500 575 31,000  Level Anchorage Center
Fri 02:23:01 PM 52.5167 173.5500 58° Northeast 490 564 31,000  Level Anchorage Center
Fri 02:24:01 PM 52.6000 173.7667 57° Northeast 490 564 31,000  Level Anchorage Center
Fri 02:25:02 PM 52.6667 173.9333 57° Northeast 500 575 31,000  Level Anchorage Center
Fri 02:28:02 PM 52.9000 174.5333 56° Northeast 490 564 31,000  Level Anchorage Center
Fri 02:29:02 PM 52.9667 174.7000 61° Northeast 490 564 31,000  Level Anchorage Center
Fri 02:30:02 PM 53.0333 174.9000 59° Northeast 500 575 31,000  Level Anchorage Center
Fri 02:31:02 PM 53.1000 175.0833 55° Northeast 490 564 31,000  Level Anchorage Center
Fri 02:32:02 PM 53.1833 175.2833 59° Northeast 500 575 31,000  Level Anchorage Center
Fri 02:33:02 PM 53.2500 175.4667 61° Northeast 490 564 31,000  Level Anchorage Center
Fri 02:34:02 PM 53.3167 175.6667 59° Northeast 490 564 31,000  Level Anchorage Center
Fri 02:35:02 PM 53.3833 175.8500 61° Northeast 490 564 31,000  Level Anchorage Center
Fri 02:36:02 PM 53.4500 176.0500 57° Northeast 490 564 31,000  Level Anchorage Center
Fri 02:37:02 PM 53.5333 176.2667 56° Northeast 490 564 31,000  Level Anchorage Center
Fri 02:38:02 PM 53.6000 176.4333 62° Northeast 480 552 31,000  Level Anchorage Center
Fri 02:39:02 PM 53.6667 176.6500 56° Northeast 480 552 31,000  Level Anchorage Center
Fri 02:40:03 PM 53.7333 176.8167 62° Northeast 480 552 31,000  Level Anchorage Center
Fri 02:41:03 PM 53.8000 177.0333 63° Northeast 470 541 31,000  Level Anchorage Center
Fri 02:42:02 PM 53.8500 177.2000 57° Northeast 470 541 31,000  Level Anchorage Center
Fri 02:43:03 PM 53.9333 177.4167 60° Northeast 470 541 31,000  Level Anchorage Center
Fri 02:44:03 PM 54.0000 177.6167 63° Northeast 470 541 31,000  Level Anchorage Center
Fri 02:45:03 PM 54.0500 177.7833 57° Northeast 470 541 31,000  Level Anchorage Center
Fri 02:46:03 PM 54.1333 178.0000 65° Northeast 480 552 31,000  Level Anchorage Center
Fri 02:47:03 PM 54.1833 178.1833 63° Northeast 480 552 31,000  Level Anchorage Center
Fri 02:48:03 PM 54.2333 178.3500 60° Northeast 480 552 31,000  Level Anchorage Center
Fri 02:53:02 PM 54.5667 179.3667 61° Northeast 482 555 31,000  Level Anchorage Center
Fri 03:03:18 PM 55.2000 -178.5333 64° Northeast 486 559 31,000  Level Anchorage Center
Fri 03:07:05 PM 55.4000 -177.8000 65° Northeast 482 555 31,000  Level Anchorage Center
Fri 03:14:50 PM 55.8500 -176.0667 66° East 470 541 31,000  Level Anchorage Center
Fri 03:20:50 PM 56.1667 -174.7500 67° East 480 552 31,000  Level Anchorage Center
Fri 03:21:50 PM 56.2167 -174.5333 67° East 480 552 31,000  Level Anchorage Center
Fri 03:22:50 PM 56.2667 -174.3167 69° East 480 552 31,000  Level Anchorage Center
Fri 03:23:50 PM 56.3167 -174.0833 61° Northeast 480 552 31,000  Level Anchorage Center
Fri 03:24:50 PM 56.3833 -173.8667 69° East 490 564 31,000  Level Anchorage Center
Fri 03:25:50 PM 56.4333 -173.6333 67° East 490 564 31,000  Level Anchorage Center
Fri 03:26:50 PM 56.4833 -173.4167 69° East 470 541 31,000  Level Anchorage Center
Fri 03:27:51 PM 56.5333 -173.1833 67° East 470 541 31,000  Level Anchorage Center
Fri 03:28:51 PM 56.5833 -172.9667 67° East 470 541 31,000  Level Anchorage Center
Fri 03:29:51 PM 56.6333 -172.7500 69° East 470 541 31,000  Level Anchorage Center
Fri 03:30:51 PM 56.6833 -172.5167 67° East 470 541 31,000  Level Anchorage Center
Fri 03:31:51 PM 56.7333 -172.3000 69° East 480 552 31,000  Level Anchorage Center
Fri 03:32:51 PM 56.7833 -172.0667 75° East 480 552 31,000  Level Anchorage Center
Fri 03:33:51 PM 56.8167 -171.8333 69° East 470 541 31,000  Level Anchorage Center
Fri 03:34:51 PM 56.8667 -171.6000 68° East 480 552 31,000  Level Anchorage Center
Fri 03:35:51 PM 56.9167 -171.3667 68° East 480 552 31,000  Level Anchorage Center
Fri 03:36:51 PM 56.9667 -171.1333 68° East 480 552 31,000  Level Anchorage Center
Fri 03:37:51 PM 57.0167 -170.9000 68° East 490 564 31,000  Level Anchorage Center
Fri 03:38:51 PM 57.0667 -170.6667 70° East 490 564 31,000  Level Anchorage Center
Fri 03:39:51 PM 57.1167 -170.4167 71° East 500 575 31,000  Level Anchorage Center
Fri 03:43:01 PM 57.2500 -169.7000 70° East 490 564 31,000  Level Anchorage Center
Fri 03:44:02 PM 57.3000 -169.4500 68° East 490 564 31,000  Level Anchorage Center
Fri 03:45:01 PM 57.3500 -169.2167 70° East 500 575 31,000  Level Anchorage Center
Fri 03:46:01 PM 57.4000 -168.9667 68° East 500 575 31,000  Level Anchorage Center
Fri 03:47:01 PM 57.4500 -168.7333 76° East 490 564 31,000  Level Anchorage Center
Fri 03:48:02 PM 57.4833 -168.4833 69° East 490 564 31,000  Level Anchorage Center
Fri 03:49:02 PM 57.5333 -168.2333 68° East 490 564 31,000  Level Anchorage Center
Fri 03:50:02 PM 57.5833 -168.0000 69° East 490 564 31,000  Level Anchorage Center
Fri 03:51:02 PM 57.6333 -167.7500 76° East 500 575 31,000  Level Anchorage Center
Fri 03:52:02 PM 57.6667 -167.5000 69° East 500 575 31,000  Level Anchorage Center
Fri 03:53:02 PM 57.7167 -167.2500 76° East 500 575 31,000  Level Anchorage Center
Fri 03:54:02 PM 57.7500 -167.0000 69° East 500 575 31,000  Level Anchorage Center
Fri 03:55:02 PM 57.8000 -166.7500 76° East 490 564 31,000  Level Anchorage Center
Fri 03:56:02 PM 57.8333 -166.5000 68° East 480 552 31,000  Level Anchorage Center
Fri 03:57:02 PM 57.8833 -166.2667 76° East 490 564 31,000  Level Anchorage Center
Fri 03:58:02 PM 57.9167 -166.0167 68° East 490 564 31,000  Level Anchorage Center
Fri 03:59:02 PM 57.9667 -165.7833 76° East 510 587 31,000  Level Anchorage Center
Fri 04:00:02 PM 58.0000 -165.5333 76° East 500 575 31,000  Level Anchorage Center
Fri 04:01:02 PM 58.0333 -165.2833 69° East 490 564 31,000  Level Anchorage Center
Fri 04:02:02 PM 58.0833 -165.0333 68° East 490 564 31,000  Level Anchorage Center
Fri 04:03:02 PM 58.1333 -164.8000 69° East 490 564 31,000  Level Anchorage Center
Fri 04:04:03 PM 58.1833 -164.5500 69° East 490 564 31,000  Level Anchorage Center
Fri 04:05:05 PM 58.2333 -164.3000 69° East 490 564 31,000  Level Anchorage Center
Fri 04:06:05 PM 58.2833 -164.0500 68° East 490 564 31,000  Level Anchorage Center
Fri 04:07:06 PM 58.3333 -163.8167 76° East 490 564 31,000  Level Anchorage Center
Fri 04:08:06 PM 58.3667 -163.5667 67° East 490 564 31,000  Level Anchorage Center
Fri 04:09:06 PM 58.4333 -163.2667 72° East 490 564 31,000  Level Anchorage Center
Fri 04:10:07 PM 58.4667 -163.0667 72° East 490 564 31,000  Level Anchorage Center
Fri 04:11:07 PM 58.5167 -162.7667 69° East 490 564 31,000  Level Anchorage Center
Fri 04:12:07 PM 58.5667 -162.5167 73° East 490 564 31,000  Level Anchorage Center
Fri 04:13:07 PM 58.6000 -162.3000 69° East 480 552 31,000  Level Anchorage Center
Fri 04:14:08 PM 58.6500 -162.0500 59° Northeast 470 541 31,000  Level Anchorage Center
Fri 04:15:08 PM 58.7167 -161.8333 59° Northeast 470 541 31,000  Level Anchorage Center
Fri 04:16:09 PM 58.7833 -161.6167 61° Northeast 480 552 31,000  Level Anchorage Center
Fri 04:17:09 PM 58.8500 -161.3833 61° Northeast 470 541 31,000  Level Anchorage Center
Fri 04:18:09 PM 58.9167 -161.1500 61° Northeast 490 564 31,000  Level Anchorage Center
Fri 04:19:10 PM 58.9833 -160.9167 61° Northeast 480 552 31,000  Level Anchorage Center
Fri 04:20:10 PM 59.0500 -160.6833 67° East 490 564 31,000  Level Anchorage Center
Fri 04:21:10 PM 59.1000 -160.4500 61° Northeast 480 552 31,000  Level Anchorage Center
Fri 04:22:11 PM 59.1667 -160.2167 61° Northeast 490 564 31,000  Level Anchorage Center
Fri 04:23:11 PM 59.2333 -159.9833 61° Northeast 490 564 31,000  Level Anchorage Center
Fri 04:24:11 PM 59.3000 -159.7500 68° East 480 552 31,000  Level Anchorage Center
Fri 04:25:12 PM 59.3500 -159.5000 61° Northeast 490 564 31,000  Level Anchorage Center
Fri 04:26:12 PM 59.4167 -159.2667 61° Northeast 470 541 31,000  Level Anchorage Center
Fri 04:27:12 PM 59.4833 -159.0333 68° East 480 552 31,000  Level Anchorage Center
Fri 04:28:13 PM 59.5333 -158.7833 62° Northeast 480 552 31,000  Level Anchorage Center
Fri 04:29:13 PM 59.6000 -158.5333 60° Northeast 490 564 31,000  Level Anchorage Center
Fri 04:30:14 PM 59.6667 -158.3000 68° East 490 564 31,000  Level Anchorage Center
Fri 04:31:14 PM 59.7167 -158.0500 62° Northeast 490 564 31,000  Level Anchorage Center
Fri 04:32:14 PM 59.7833 -157.8000 60° Northeast 490 564 31,000  Level Anchorage Center
Fri 04:33:15 PM 59.8500 -157.5667 68° East 480 552 31,000  Level Anchorage Center
Fri 04:34:15 PM 59.9000 -157.3167 62° Northeast 480 552 31,000  Level Anchorage Center
Fri 04:35:16 PM 59.9667 -157.0667 68° East 480 552 31,000  Level Anchorage Center
Fri 04:36:16 PM 60.0167 -156.8167 63° Northeast 480 552 31,000  Level Anchorage Center
Fri 04:37:16 PM 60.0833 -156.5500 67° East 480 552 31,000  Level Anchorage Center
Fri 04:38:17 PM 60.1333 -156.3167 68° East 480 552 31,000  Level Anchorage Center
Fri 04:39:17 PM 60.1833 -156.0667 62° Northeast 480 552 31,000  Level Anchorage Center
Fri 04:40:18 PM 60.2500 -155.8167 68° East 490 564 31,000  Level Anchorage Center
Fri 04:41:18 PM 60.3000 -155.5667 76° East 480 552 31,000  Level Anchorage Center
Fri 04:42:19 PM 60.3333 -155.3000 68° East 480 552 31,000  Level Anchorage Center
Fri 04:43:19 PM 60.3833 -155.0500 76° East 480 552 31,000  Level Anchorage Center
Fri 04:44:20 PM 60.4167 -154.7833 69° East 480 552 31,000  Level Anchorage Center
Fri 04:45:20 PM 60.4667 -154.5167 75° East 480 552 31,000  Level Anchorage Center
Fri 04:46:20 PM 60.5000 -154.2667 72° East 490 564 31,000  Level Anchorage Center
Fri 04:47:21 PM 60.5500 -153.9500 76° East 490 564 31,000  Level Anchorage Center
Fri 04:48:21 PM 60.5833 -153.6833 69° East 490 564 31,000  Level Anchorage Center
Fri 04:49:21 PM 60.6333 -153.4167 82° East 480 552 31,000 -50 Level Anchorage Center
Fri 04:50:21 PM 60.6500 -153.1667 69° East 480 552 30,900 -893 Descending Anchorage Center
Fri 04:51:22 PM 60.7000 -152.9000 76° East 480 552 29,200 -2,557 Descending Anchorage Center
Fri 04:52:23 PM 60.7333 -152.6333 75° East 480 552 25,700 -2,678 Descending Anchorage Center
Fri 04:53:23 PM 60.7667 -152.3833 74° East 460 529 23,800 -1,900 Descending Anchorage Center
Fri 04:54:23 PM 60.8000 -152.1500 74° East 430 495 21,900 -1,835 Descending Anchorage Center
Fri 04:55:24 PM 60.8333 -151.9167 81° East 410 472 20,100 -1,636 Descending Anchorage Center
Fri 04:56:24 PM 60.8500 -151.7000 68° East 410 472 18,600 -1,500 Descending Anchorage Center
Fri 05:03:32 PM 61.1667 -149.9833 316° Northwest  Level FlightAware Approximate
Fri 05:04:32 PM 61.2656 -150.1825 143° Southeast  Level Estimated
Fri 05:05:32 PM 61.1667 -150.0301 64° Northeast  Level FlightAware Approximate
Fri 05:06:32 PM 61.2262 -149.7721 245° Southwest  Level Estimated
Fri 05:07:32 PM 61.1667 -150.0301 64° Northeast  Level Estimated
Fri 05:08:32 PM 61.2262 -149.7721 245° Southwest  Level Estimated
Fri 05:09:32 PM 61.1667 -150.0301 90° East  Level Estimated
Fri 05:10:32 PM 61.1667 -149.9833 316° Northwest  Level FlightAware Approximate
Fri 05:11:32 PM 61.2656 -150.1825 136° Southeast  Level Estimated
Fri 05:12:32 PM 61.1667 -149.9833 316° Northwest  Level FlightAware Approximate
Fri 05:13:32 PM 61.2656 -150.1825 136° Southeast  Level Estimated
Fri 05:14:32 PM 61.1667 -149.9833 316° Northwest  Level FlightAware Approximate
Fri 05:15:32 PM 61.2656 -150.1825 136° Southeast  Level Estimated
Fri 05:16:32 PM 61.1667 -149.9833 316° Northwest  Level FlightAware Approximate
Fri 05:17:32 PM 61.2656 -150.1825 136° Southeast  Level Estimated
Fri 05:18:32 PM 61.1667 -149.9833 316° Northwest  Level FlightAware Approximate
Fri 05:19:32 PM 61.2656 -150.1825 316° Northwest  Level Estimated

Login

Don't have an account? Register now (free) for customized features, flight alerts, and more!